< < Back
Terminal Aerodrome Forecast


Current Version              Previous Versions:   1  2  3  4  5  6  7  8  9  

Terminal Aerodrome Forecast

147
FTUS42 KILM 252300
TAFILM
TAF
KILM 252320Z 2600/2624 25003KT P6SM SKC
     FM261400 31009KT P6SM SKC=



Latest METAR

213
SAUS70 KWBC 260756
MTRILM
METAR KILM 260753Z AUTO 25007KT 10SM CLR 13/07 A2985 RMK AO2 SLP107
T01280067


USA.gov is the U.S. government's official web portal to all federal, state and local government web resources and services.